• Join FlightAware (Why Join?)
  • Login
  • US Flag 
03:40AM EDT


 

Airport Tracker/Info


-or-


 

Live Flight TrackerFlight Track Log ✈ DAL2128 ✈ 05-Jul-2013 ✈ KMCO - KDTW

Flight Track Log - Related Links

Times and Time Zones

All times are in EDT time to prevent confusion due to time zone crossing. See the DAL2128 flight status page for this flight to view local times or setup timezone preferences in your user account.

Time Position Orientation Groundspeed Altitude Reporting Facility
EDT Latitude Longitude Course Direction KTS MPH feet Rate Location/Type
02:22PM 28.4000 -81.3000 350° North 173 199 900  Level Orlando TRACON
02:24PM 28.3333 -81.2333 139° Southeast 248 285 5,000 2,820 Climbing Orlando TRACON
02:24PM 28.3333 -81.1667 90° East 258 297 7,700 3,060 Climbing Orlando TRACON
02:25PM 28.7845 -81.3500 North  Level FlightAware Approximate
02:25PM 28.3833 -81.1167 41° Northeast 306 352 10,300  Level Orlando TRACON
02:26PM 28.9092 -81.3652 350° North  Level FlightAware Approximate
02:26PM 28.4833 -81.1500 344° North 390 449 11,400  Level Orlando TRACON
02:27PM 29.0345 -81.3736 350° North  Level FlightAware Approximate
02:27PM 28.5833 -81.2000 336° Northwest 416 479 13,400  Level Orlando TRACON
02:29PM 28.7653 -81.2275 352° North 453 521 16,000 1,560 Climbing Jacksonville Center
02:30PM 28.8967 -81.2278 360° North 445 512 17,600 1,500 Climbing Jacksonville Center
02:31PM 29.0178 -81.2306 359° North 432 497 19,000 600 Climbing Jacksonville Center
02:32PM 29.1308 -81.2619 346° North 419 482 18,900  Descending Jacksonville Center
02:33PM 29.2356 -81.2958 344° North 403 464 19,000 900 Climbing Jacksonville Center
02:34PM 29.3467 -81.3297 345° North 403 464 20,700 1,740 Climbing Jacksonville Center
02:35PM 29.4578 -81.3661 344° North 403 464 22,600 1,140 Climbing Jacksonville Center
02:36PM 29.5708 -81.3978 346° North 403 464 23,000 720 Climbing Jacksonville Center
02:37PM 29.6861 -81.4342 345° North 415 478 24,100 1,260 Climbing Jacksonville Center
02:38PM 29.8014 -81.4828 340° North 426 490 25,600 1,440 Climbing Jacksonville Center
02:39PM 29.8944 -81.5772 319° Northwest 434 499 27,000 1,380 Climbing Jacksonville Center
02:40PM 29.9892 -81.6744 318° Northwest 441 507 28,400 960 Climbing Jacksonville Center
02:41PM 30.0797 -81.7572 322° Northwest 457 526 29,000 300 Climbing Jacksonville Center
02:42PM 30.1806 -81.8256 330° Northwest 448 516 29,000  Level Jacksonville Center
02:43PM 30.3061 -81.8364 356° North 429 494 29,000  Level Jacksonville Center
02:44PM 30.4356 -81.8494 355° North 442 509 29,000  Level Jacksonville Center
02:45PM 30.5692 -81.8647 354° North 465 535 29,000  Level Jacksonville Center
02:46PM 30.6989 -81.8778 355° North 470 541 29,000  Level Jacksonville Center
02:47PM 30.8306 -81.8908 355° North 465 535 29,000  Level Jacksonville Center
02:48PM 30.9600 -81.9017 356° North 465 535 29,000  Level Jacksonville Center
02:49PM 31.0817 -81.9561 339° North 465 535 29,000  Level Jacksonville Center
02:50PM 31.1969 -82.0281 332° Northwest 465 535 29,000  Level Jacksonville Center
02:51PM 31.3061 -82.1144 326° Northwest 470 541 29,000  Level Jacksonville Center
02:52PM 31.4192 -82.1939 329° Northwest 470 541 29,000  Level Jacksonville Center
02:53PM 31.5344 -82.2614 333° Northwest 475 547 29,000  Level Jacksonville Center
02:54PM 31.6536 -82.3289 334° Northwest 469 540 29,000  Level Jacksonville Center
02:55PM 31.7628 -82.4086 328° Northwest 464 534 29,000  Level Jacksonville Center
02:57PM 31.9592 -82.5678 326° Northwest 480 552 29,000 60 Level Atlanta Center
02:58PM 32.0686 -82.6542 326° Northwest 480 552 29,200 840 Climbing Atlanta Center
02:59PM 32.1719 -82.7433 324° Northwest 466 536 30,700 900 Climbing Atlanta Center
03:00PM 32.2769 -82.8278 326° Northwest 461 531 31,000 1,020 Climbing Atlanta Center
03:01PM 32.3925 -82.8900 336° Northwest 450 518 32,800 960 Climbing Atlanta Center
03:02PM 32.5097 -82.9428 339° North 440 506 33,000 60 Climbing Atlanta Center
03:03PM 32.6292 -82.9956 340° North 451 519 33,000  Level Atlanta Center
03:04PM 32.7508 -83.0483 340° North 456 525 33,000  Level Atlanta Center
03:05PM 32.8786 -83.1064 339° North 451 519 33,000  Level Atlanta Center
03:06PM 33.0042 -83.1494 344° North 457 526 33,000  Level Atlanta Center
03:07PM 33.1378 -83.1631 355° North 472 543 33,000  Level Atlanta Center
03:08PM 33.2669 -83.1419 North 487 560 33,000  Level Atlanta Center
03:09PM 33.3878 -83.0858 21° North 465 535 33,000  Level Atlanta Center
03:10PM 33.5103 -83.0247 23° Northeast 465 535 33,000  Level Atlanta Center
03:11PM 33.6164 -82.9661 25° Northeast 474 545 33,000  Level Atlanta Center
03:12PM 33.7411 -82.9047 22° Northeast 474 545 33,000  Level Atlanta Center
03:13PM 33.8678 -82.8503 20° North 474 545 33,000  Level Atlanta Center
03:14PM 33.9903 -82.7961 20° North 474 545 33,000  Level Atlanta Center
03:15PM 34.1172 -82.7442 19° North 474 545 33,000  Level Atlanta Center
03:16PM 34.2483 -82.7144 11° North 474 545 33,000  Level Atlanta Center
03:17PM 34.3797 -82.6972 North 474 545 33,000  Level Atlanta Center
03:18PM 34.5150 -82.6775 North 479 551 33,000  Level Atlanta Center
03:19PM 34.6589 -82.6700 North 479 551 33,000  Level Atlanta Center
03:20PM 34.7928 -82.6806 356° North 473 544 33,000  Level Atlanta Center
03:21PM 34.9281 -82.6606 North 473 544 33,000  Level Atlanta Center
03:22PM 35.0594 -82.6431 North 478 550 33,000  Level Atlanta Center
03:23PM 35.1947 -82.6206 North 484 557 33,000  Level Atlanta Center
03:24PM 35.3281 -82.6006 North 484 557 33,000  Level Atlanta Center
03:25PM 35.4633 -82.5750 North 484 557 33,000  Level Atlanta Center
03:26PM 35.6031 -82.5572 North 489 563 33,000  Level Atlanta Center
03:27PM 35.7319 -82.5319 North 484 557 33,000  Level Atlanta Center
03:28PM 35.8653 -82.5117 North 478 550 33,000  Level Atlanta Center
03:29PM 36.0006 -82.4858 North 486 559 33,000  Level Atlanta Center
03:30PM 36.1358 -82.4653 North 486 559 33,000  Level Atlanta Center
03:31PM 36.2689 -82.4422 North 486 559 33,000  Level Atlanta Center
03:32PM 36.4042 -82.4214 North 486 559 33,000  Level Atlanta Center
03:33PM 36.5394 -82.4006 North 481 554 33,000  Level Atlanta Center
03:34PM 36.7431 -82.3672 North 495 570 33,000  Level Indianapolis Center
03:35PM 36.8797 -82.3456 North 497 572 33,000  Level Indianapolis Center
03:36PM 37.0156 -82.3225 North 496 571 33,000  Level Indianapolis Center
03:37PM 37.1508 -82.3003 North 493 567 33,000  Level Indianapolis Center
03:38PM 37.2881 -82.2786 North 495 570 33,000  Level Indianapolis Center
03:39PM 37.4469 -82.2508 North 494 568 33,000  Level Indianapolis Center
03:40PM 37.5831 -82.2283 North 494 568 33,000  Level Indianapolis Center
03:41PM 37.7194 -82.2050 North 493 567 33,000  Level Indianapolis Center
03:43PM 37.8561 -82.1819 North 495 570 33,000  Level Indianapolis Center
03:44PM 37.9858 -82.1600 North 493 567 33,000  Level Indianapolis Center
03:45PM 38.1231 -82.1356 North 494 568 33,000  Level Indianapolis Center
03:46PM 38.2608 -82.1125 North 495 570 33,000  Level Indianapolis Center
03:47PM 38.3986 -82.0894 North 496 571 33,000  Level Indianapolis Center
03:48PM 38.5636 -82.0606 North 495 570 33,000  Level Indianapolis Center
03:49PM 38.7006 -82.0375 North 492 566 33,000  Level Indianapolis Center
03:50PM 38.8381 -82.0400 359° North 488 562 33,000  Level Indianapolis Center
03:51PM 38.9739 -82.0625 353° North 487 560 33,000  Level Indianapolis Center
03:52PM 39.1086 -82.0842 353° North 486 559 33,000  Level Indianapolis Center
03:53PM 39.2450 -82.1053 353° North 491 565 33,000  Level Indianapolis Center
03:54PM 39.3803 -82.1256 353° North 487 560 33,000  Level Indianapolis Center
03:55PM 39.5222 -82.1486 353° North 491 565 33,000  Level Indianapolis Center
03:56PM 39.6594 -82.1700 353° North 493 567 33,000  Level Indianapolis Center
03:57PM 39.7953 -82.1925 353° North 489 563 33,000  Level Indianapolis Center
03:58PM 39.9317 -82.2136 353° North 491 565 33,000  Level Indianapolis Center
03:59PM 40.0919 -82.2417 352° North 494 568 33,000  Level Indianapolis Center
04:00PM 40.2289 -82.2631 353° North 494 568 33,000 -540 Level Indianapolis Center
04:01PM 40.3578 -82.2844 353° North 492 566 31,900 -1,440 Descending Indianapolis Center
04:02PM 40.4958 -82.3086 352° North 493 567 30,100 -960 Descending Indianapolis Center
04:03PM 40.6322 -82.3469 348° North 492 566 30,000 -60 Descending Indianapolis Center
04:04PM 40.7683 -82.3867 348° North 494 568 30,000 -300 Level Indianapolis Center
04:05PM 40.9031 -82.4258 348° North 490 564 29,500 -1,980 Descending Indianapolis Center
04:06PM 41.0381 -82.4639 348° North 489 563 26,000 -2,700 Descending Indianapolis Center
04:07PM 41.1728 -82.5031 348° North 489 563 24,000 -1,680 Descending Indianapolis Center
04:08PM 41.3122 -82.5875 336° Northwest 469 540 22,600 -2,040 Descending Indianapolis Center
04:09PM 41.4061 -82.6975 319° Northwest 451 519 19,900 -2,580 Descending Indianapolis Center
04:10PM 41.4956 -82.8031 319° Northwest 432 497 17,400 -2,700 Descending Indianapolis Center
04:11PM 41.5800 -82.9067 317° Northwest 403 464 14,600 -2,580 Descending Cleveland Center
04:12PM 41.6592 -83.0011 318° Northwest 391 450 12,300 -1,320 Descending Cleveland Center
04:13PM 41.7450 -83.0878 323° Northwest 336 387 12,000 -180 Descending Cleveland Center
04:14PM 41.8228 -83.1467 331° Northwest 307 353 12,000  Level Cleveland Center
04:15PM 41.9033 -83.1806 343° North 316 364 12,000  Level Cleveland Center
04:16PM 41.9903 -83.2092 346° North 317 365 12,000 -540 Level Cleveland Center
04:17PM 42.0814 -83.2356 348° North 313 360 11,000 -960 Descending Cleveland Center
04:18PM 42.1614 -83.2053 16° North 310 357 10,100 -960 Descending Cleveland Center
04:19PM 42.2417 -83.1553 25° Northeast 293 337 9,000 -1,020 Descending Cleveland Center
04:20PM 42.3031 -83.1183 24° Northeast 232 267 8,100 -1,140 Descending Cleveland Center
04:21PM 42.3622 -83.0814 25° Northeast 226 260 6,800 -1,080 Descending Cleveland Center
04:22PM 42.4214 -83.0472 23° Northeast 228 262 6,000 -420 Descending Cleveland Center
04:23PM 42.4783 -83.0156 22° Northeast 223 257 6,000  Level Cleveland Center
04:24PM 42.5081 -83.0872 299° West 210 242 6,000  Level Cleveland Center
04:25PM 42.4733 -83.1450 231° Southwest 197 227 6,000 -300 Level Cleveland Center
04:26PM 42.4244 -83.1850 211° Southwest 194 223 5,400 -900 Descending Cleveland Center
04:28PM 42.3778 -83.2197 209° Southwest 192 221 4,200 -1,200 Descending Cleveland Center